Csl Tacoma — C6ZJ7 — position and weather

sailwx.info

Track history (hours):
 
Tides and Currents Weather Stations Pressure Air Temp Water Temp Dewpoint Dewpoint Depression Visibility Wind Speed Wind Dir Waves Ship Positions

Csl Tacoma

Last reported at 2017-Nov-18 16:38 UTC. Time now 2017-Nov-19 05:10 UTC.
Position N 36°51' W 075°51'.

Length 229 m; draft 12.3 m.

Type: Cargo ship. MMSI: 311057100.

Date/timePositionNaut miles runAvg speedWind from/ knotsBaromVisibWave heightAir tempDewpointWater temp
2017-Nov-18 16:38N 36°51' W 075°51'1 9.1
2017-Nov-18 16:30N 36°52' W 075°53'5 9.4
2017-Nov-18 15:57N 36°56' W 075°57'3 6.2
2017-Nov-18 15:31N 36°57' W 076°00'5 9.9
2017-Nov-18 15:00N 36°58' W 076°06'8 7.9
2017-Nov-18 13:59N 37°00' W 076°16'4 7.2
2017-Nov-18 13:28N 36°58' W 076°20'4 8.5
2017-Nov-18 13:00N 36°57' W 076°25'1 1.5
2017-Nov-18 12:28N 36°58' W 076°25'0 0.0
2017-Nov-18 12:01N 36°58' W 076°25'0 0.0
2017-Nov-18 11:29N 36°58' W 076°25'0 0.0
2017-Nov-18 11:00N 36°58' W 076°25'0 0.0
2017-Nov-18 10:30N 36°58' W 076°25'0 0.0
2017-Nov-18 09:58N 36°58' W 076°25'0 0.0
2017-Nov-18 09:13N 36°58' W 076°25'0 0.0
2017-Nov-18 08:58N 36°58' W 076°25'0 0.0
2017-Nov-18 08:13N 36°58' W 076°25'0 0.0
2017-Nov-18 07:43N 36°58' W 076°25'0 0.0
2017-Nov-18 07:25N 36°58' W 076°25'0 0.0
2017-Nov-18 06:49N 36°58' W 076°25'0 0.0
2017-Nov-18 06:22N 36°58' W 076°25'0 0.0
2017-Nov-18 05:55N 36°58' W 076°25'0 0.0
2017-Nov-18 04:25N 36°58' W 076°25'0 0.0
2017-Nov-18 03:46N 36°58' W 076°25'0 0.0
2017-Nov-18 03:31N 36°58' W 076°25'0 0.0
2017-Nov-18 02:58N 36°58' W 076°25'0 0.0
2017-Nov-18 02:25N 36°58' W 076°25'0 0.0
2017-Nov-18 01:31N 36°58' W 076°25'0 0.0
2017-Nov-18 01:06N 36°58' W 076°25'0 0.0
2017-Nov-18 00:55N 36°58' W 076°25'0 0.0
2017-Nov-18 00:25N 36°58' W 076°25'0 0.0
2017-Nov-17 23:51N 36°58' W 076°25'0 0.0
2017-Nov-17 23:13N 36°58' W 076°25'0 0.0
2017-Nov-17 22:57N 36°58' W 076°25'0 0.0
2017-Nov-17 21:49N 36°58' W 076°25'0 0.0
2017-Nov-17 19:16N 36°58' W 076°25'0 0.0
2017-Nov-17 18:03N 36°58' W 076°25'0 0.0
2017-Nov-17 17:57N 36°58' W 076°25'0 0.0
2017-Nov-17 17:09N 36°58' W 076°25'0 0.0
2017-Nov-17 16:54N 36°58' W 076°25'0 0.0
2017-Nov-17 16:27N 36°58' W 076°25'0 0.0
2017-Nov-17 15:58N 36°58' W 076°25'0 0.0
2017-Nov-17 15:16N 36°58' W 076°25'0 0.0
2017-Nov-17 14:49N 36°58' W 076°25'0 0.0
2017-Nov-17 14:31N 36°58' W 076°25'0 0.0
2017-Nov-17 13:55N 36°58' W 076°25'0 0.0
2017-Nov-17 13:30N 36°58' W 076°25'0 0.0
2017-Nov-17 13:00N 36°58' W 076°25'0 0.0
2017-Nov-17 12:30N 36°58' W 076°25'0 0.0
2017-Nov-17 12:01N 36°58' W 076°25'0 0.0
2017-Nov-17 11:30N 36°58' W 076°25'0 0.0
2017-Nov-17 10:42N 36°58' W 076°25'0 0.0
2017-Nov-17 10:30N 36°58' W 076°25'0 0.0
2017-Nov-17 10:00N 36°58' W 076°25'0 0.0
2017-Nov-17 09:30N 36°58' W 076°25'0 0.0
2017-Nov-17 08:54N 36°58' W 076°25'0 0.0
2017-Nov-17 08:18N 36°58' W 076°25'0 0.0
2017-Nov-17 08:00N 36°58' W 076°25'0 0.0
2017-Nov-17 07:30N 36°58' W 076°25'0 0.0
2017-Nov-17 07:01N 36°58' W 076°25'0 0.0
2017-Nov-17 06:30N 36°58' W 076°25'0 0.0
2017-Nov-17 06:00N 36°58' W 076°25'0 0.0
2017-Nov-17 05:30N 36°58' W 076°25'0 0.0
2017-Nov-17 05:00N 36°58' W 076°25'0 0.0
2017-Nov-17 04:30N 36°58' W 076°25'0 0.0
2017-Nov-17 04:00N 36°58' W 076°25'0 0.0
2017-Nov-17 03:30N 36°58' W 076°25'0 0.0
2017-Nov-17 03:01N 36°58' W 076°25'0 0.0
2017-Nov-17 02:30N 36°58' W 076°25'0 0.0
2017-Nov-17 02:00N 36°58' W 076°25'0 0.0
2017-Nov-17 01:30N 36°58' W 076°25'0 0.0
2017-Nov-17 01:00N 36°58' W 076°25'0 0.0
2017-Nov-17 00:30N 36°58' W 076°25'0 0.0
2017-Nov-17 00:00N 36°58' W 076°25'2 3.0
2017-Nov-16 23:30N 36°57' W 076°24'510.4
2017-Nov-16 22:59N 36°60' W 076°18'813.9
2017-Nov-16 22:24N 36°59' W 076°08'513.5
2017-Nov-16 22:00N 36°57' W 076°01'5 9.1
2017-Nov-16 21:30N 36°56' W 075°56'4 6.6
2017-Nov-16 20:56N 36°53' W 075°52'42110.0
2017-Nov-15 02:41N 42°16' W 070°02'212.7
2017-Nov-15 02:30N 42°19' W 070°03'613.0
2017-Nov-15 02:00N 42°25' W 070°03'713.2
2017-Nov-15 01:30N 42°32' W 070°03'713.2
2017-Nov-15 01:00N 42°38' W 070°04'612.1
2017-Nov-15 00:30N 42°44' W 070°06'612.5
2017-Nov-15 00:00N 42°48' W 070°13'612.5
2017-Nov-14 23:30N 42°52' W 070°19'612.7
2017-Nov-14 23:00N 42°56' W 070°26'612.5
2017-Nov-14 22:31N 43°00' W 070°32'612.3
2017-Nov-14 22:00N 43°02' W 070°40'1 0.0
2017-Nov-13 00:27N 43°02' W 070°41'0 0.0
2017-Nov-12 23:54N 43°02' W 070°41'0 0.0
2017-Nov-12 23:27N 43°02' W 070°41'0 0.0
2017-Nov-12 21:45N 43°02' W 070°41'0 0.0
2017-Nov-12 13:06N 43°02' W 070°41'0 0.0
2017-Nov-12 13:00N 43°02' W 070°41'0 0.0
2017-Nov-12 12:27N 43°02' W 070°41'0 0.0
2017-Nov-12 09:00N 43°02' W 070°41'2 0.4
2017-Nov-12 04:21N 43°02' W 070°39'3 8.6
2017-Nov-12 04:00N 43°02' W 070°35'612.2
2017-Nov-12 03:30N 43°02' W 070°26'612.4
2017-Nov-12 03:00N 43°01' W 070°18'  
Track history (hours):
 
Tides and Currents Weather Stations Pressure Air Temp Water Temp Dewpoint Dewpoint Depression Visibility Wind Speed Wind Dir Waves Ship Positions

Csl Tacoma

Last reported at 2017-Nov-18 16:38 UTC. Time now 2017-Nov-19 05:10 UTC.
Position N 36°51' W 075°51'.

Length 229 m; draft 12.3 m.

Type: Cargo ship. MMSI: 311057100.

Date/timePositionNaut miles runAvg speedWind from/ knotsBaromVisibWave heightAir tempDewpointWater temp
2017-Nov-18 16:38N 36°51' W 075°51'1 9.1
2017-Nov-18 16:30N 36°52' W 075°53'5 9.4
2017-Nov-18 15:57N 36°56' W 075°57'3 6.2
2017-Nov-18 15:31N 36°57' W 076°00'5 9.9
2017-Nov-18 15:00N 36°58' W 076°06'8 7.9
2017-Nov-18 13:59N 37°00' W 076°16'4 7.2
2017-Nov-18 13:28N 36°58' W 076°20'4 8.5
2017-Nov-18 13:00N 36°57' W 076°25'1 1.5
2017-Nov-18 12:28N 36°58' W 076°25'0 0.0
2017-Nov-18 12:01N 36°58' W 076°25'0 0.0
2017-Nov-18 11:29N 36°58' W 076°25'0 0.0
2017-Nov-18 11:00N 36°58' W 076°25'0 0.0
2017-Nov-18 10:30N 36°58' W 076°25'0 0.0
2017-Nov-18 09:58N 36°58' W 076°25'0 0.0
2017-Nov-18 09:13N 36°58' W 076°25'0 0.0
2017-Nov-18 08:58N 36°58' W 076°25'0 0.0
2017-Nov-18 08:13N 36°58' W 076°25'0 0.0
2017-Nov-18 07:43N 36°58' W 076°25'0 0.0
2017-Nov-18 07:25N 36°58' W 076°25'0 0.0
2017-Nov-18 06:49N 36°58' W 076°25'0 0.0
2017-Nov-18 06:22N 36°58' W 076°25'0 0.0
2017-Nov-18 05:55N 36°58' W 076°25'0 0.0
2017-Nov-18 04:25N 36°58' W 076°25'0 0.0
2017-Nov-18 03:46N 36°58' W 076°25'0 0.0
2017-Nov-18 03:31N 36°58' W 076°25'0 0.0
2017-Nov-18 02:58N 36°58' W 076°25'0 0.0
2017-Nov-18 02:25N 36°58' W 076°25'0 0.0
2017-Nov-18 01:31N 36°58' W 076°25'0 0.0
2017-Nov-18 01:06N 36°58' W 076°25'0 0.0
2017-Nov-18 00:55N 36°58' W 076°25'0 0.0
2017-Nov-18 00:25N 36°58' W 076°25'0 0.0
2017-Nov-17 23:51N 36°58' W 076°25'0 0.0
2017-Nov-17 23:13N 36°58' W 076°25'0 0.0
2017-Nov-17 22:57N 36°58' W 076°25'0 0.0
2017-Nov-17 21:49N 36°58' W 076°25'0 0.0
2017-Nov-17 19:16N 36°58' W 076°25'0 0.0
2017-Nov-17 18:03N 36°58' W 076°25'0 0.0
2017-Nov-17 17:57N 36°58' W 076°25'0 0.0
2017-Nov-17 17:09N 36°58' W 076°25'0 0.0
2017-Nov-17 16:54N 36°58' W 076°25'0 0.0
2017-Nov-17 16:27N 36°58' W 076°25'0 0.0
2017-Nov-17 15:58N 36°58' W 076°25'0 0.0
2017-Nov-17 15:16N 36°58' W 076°25'0 0.0
2017-Nov-17 14:49N 36°58' W 076°25'0 0.0
2017-Nov-17 14:31N 36°58' W 076°25'0 0.0
2017-Nov-17 13:55N 36°58' W 076°25'0 0.0
2017-Nov-17 13:30N 36°58' W 076°25'0 0.0
2017-Nov-17 13:00N 36°58' W 076°25'0 0.0
2017-Nov-17 12:30N 36°58' W 076°25'0 0.0
2017-Nov-17 12:01N 36°58' W 076°25'0 0.0
2017-Nov-17 11:30N 36°58' W 076°25'0 0.0
2017-Nov-17 10:42N 36°58' W 076°25'0 0.0
2017-Nov-17 10:30N 36°58' W 076°25'0 0.0
2017-Nov-17 10:00N 36°58' W 076°25'0 0.0
2017-Nov-17 09:30N 36°58' W 076°25'0 0.0
2017-Nov-17 08:54N 36°58' W 076°25'0 0.0
2017-Nov-17 08:18N 36°58' W 076°25'0 0.0
2017-Nov-17 08:00N 36°58' W 076°25'0 0.0
2017-Nov-17 07:30N 36°58' W 076°25'0 0.0
2017-Nov-17 07:01N 36°58' W 076°25'0 0.0
2017-Nov-17 06:30N 36°58' W 076°25'0 0.0
2017-Nov-17 06:00N 36°58' W 076°25'0 0.0
2017-Nov-17 05:30N 36°58' W 076°25'0 0.0
2017-Nov-17 05:00N 36°58' W 076°25'0 0.0
2017-Nov-17 04:30N 36°58' W 076°25'0 0.0
2017-Nov-17 04:00N 36°58' W 076°25'0 0.0
2017-Nov-17 03:30N 36°58' W 076°25'0 0.0
2017-Nov-17 03:01N 36°58' W 076°25'0 0.0
2017-Nov-17 02:30N 36°58' W 076°25'0 0.0
2017-Nov-17 02:00N 36°58' W 076°25'0 0.0
2017-Nov-17 01:30N 36°58' W 076°25'0 0.0
2017-Nov-17 01:00N 36°58' W 076°25'0 0.0
2017-Nov-17 00:30N 36°58' W 076°25'0 0.0
2017-Nov-17 00:00N 36°58' W 076°25'2 3.0
2017-Nov-16 23:30N 36°57' W 076°24'510.4
2017-Nov-16 22:59N 36°60' W 076°18'813.9
2017-Nov-16 22:24N 36°59' W 076°08'513.5
2017-Nov-16 22:00N 36°57' W 076°01'5 9.1
2017-Nov-16 21:30N 36°56' W 075°56'4 6.6
2017-Nov-16 20:56N 36°53' W 075°52'42110.0
2017-Nov-15 02:41N 42°16' W 070°02'212.7
2017-Nov-15 02:30N 42°19' W 070°03'613.0
2017-Nov-15 02:00N 42°25' W 070°03'713.2
2017-Nov-15 01:30N 42°32' W 070°03'713.2
2017-Nov-15 01:00N 42°38' W 070°04'612.1
2017-Nov-15 00:30N 42°44' W 070°06'612.5
2017-Nov-15 00:00N 42°48' W 070°13'612.5
2017-Nov-14 23:30N 42°52' W 070°19'612.7
2017-Nov-14 23:00N 42°56' W 070°26'612.5
2017-Nov-14 22:31N 43°00' W 070°32'612.3
2017-Nov-14 22:00N 43°02' W 070°40'1 0.0
2017-Nov-13 00:27N 43°02' W 070°41'0 0.0
2017-Nov-12 23:54N 43°02' W 070°41'0 0.0
2017-Nov-12 23:27N 43°02' W 070°41'0 0.0
2017-Nov-12 21:45N 43°02' W 070°41'0 0.0
2017-Nov-12 13:06N 43°02' W 070°41'0 0.0
2017-Nov-12 13:00N 43°02' W 070°41'0 0.0
2017-Nov-12 12:27N 43°02' W 070°41'0 0.0
2017-Nov-12 09:00N 43°02' W 070°41'2 0.4
2017-Nov-12 04:21N 43°02' W 070°39'3 8.6
2017-Nov-12 04:00N 43°02' W 070°35'612.2
2017-Nov-12 03:30N 43°02' W 070°26'612.4
2017-Nov-12 03:00N 43°01' W 070°18'  

Dump ship's entire track history